createdAt,value
2022-10-18T00:00:15.990Z,100305.06
2022-10-18T00:05:18.953Z,100304.44
2022-10-18T00:10:21.776Z,100310.00
2022-10-18T00:15:25.974Z,100304.25
2022-10-18T00:20:28.694Z,100304.63
2022-10-18T00:25:31.462Z,100303.59
2022-10-18T00:30:35.608Z,100293.84
2022-10-18T00:35:38.292Z,100292.38
2022-10-18T00:40:40.995Z,100281.59
2022-10-18T00:45:45.263Z,100285.16
2022-10-18T00:50:48.684Z,100286.97
2022-10-18T00:55:51.961Z,100282.63
2022-10-18T01:00:56.116Z,100277.25
2022-10-18T01:05:58.944Z,100276.59
2022-10-18T01:11:14.526Z,100267.50
2022-10-18T01:16:23.129Z,100258.78
2022-10-18T01:21:37.097Z,100265.00
2022-10-18T01:26:54.026Z,100260.00
2022-10-18T01:32:00.111Z,100263.34
2022-10-18T01:37:04.520Z,100257.31
2022-10-18T01:42:08.922Z,100254.81
2022-10-18T01:47:14.604Z,100262.88
2022-10-18T01:52:17.736Z,100259.38
2022-10-18T01:57:25.529Z,100249.81
2022-10-18T02:02:40.246Z,100260.59
2022-10-18T02:07:55.327Z,100257.72
2022-10-18T02:13:09.524Z,100258.28
2022-10-18T02:18:16.407Z,100256.63
2022-10-18T02:23:22.614Z,100246.47
2022-10-18T02:28:25.547Z,100252.91
2022-10-18T02:33:34.276Z,100239.63
2022-10-18T02:38:37.659Z,100242.13
2022-10-18T02:43:40.344Z,100243.19
2022-10-18T02:48:44.414Z,100249.56
2022-10-18T02:53:47.127Z,100240.66
2022-10-18T02:58:49.810Z,100253.28
2022-10-18T03:03:53.855Z,100256.38
2022-10-18T03:08:56.620Z,100252.00
2022-10-18T03:13:59.409Z,100257.41
2022-10-18T03:19:03.533Z,100257.59
2022-10-18T03:24:07.393Z,100259.06
2022-10-18T03:29:10.439Z,100261.94
2022-10-18T03:34:15.695Z,100260.91
2022-10-18T03:39:18.395Z,100262.78
2022-10-18T03:44:21.169Z,100261.13
2022-10-18T03:49:25.299Z,100259.25
2022-10-18T03:54:27.986Z,100259.44
2022-10-18T03:59:30.725Z,100268.16
2022-10-18T04:04:34.821Z,100255.75
2022-10-18T04:09:37.598Z,100259.44
2022-10-18T04:14:40.389Z,100258.59
2022-10-18T04:19:44.488Z,100257.78
2022-10-18T04:24:47.210Z,100257.78
2022-10-18T04:29:50.016Z,100261.31
2022-10-18T04:34:54.140Z,100246.19
2022-10-18T04:39:56.874Z,100243.28
2022-10-18T04:44:59.689Z,100257.78
2022-10-18T04:50:03.802Z,100255.09
2022-10-18T04:55:07.488Z,100251.09
2022-10-18T05:00:10.881Z,100260.66
2022-10-18T05:05:14.965Z,100255.50
2022-10-18T05:10:17.791Z,100269.13
2022-10-18T05:15:20.543Z,100262.72
2022-10-18T05:20:24.716Z,100271.81
2022-10-18T05:25:27.460Z,100269.13
2022-10-18T05:30:30.189Z,100273.69
2022-10-18T05:35:34.604Z,100264.56
2022-10-18T05:40:39.295Z,100280.72
2022-10-18T05:45:48.468Z,100280.09
2022-10-18T05:50:52.540Z,100284.63
2022-10-18T05:55:55.295Z,100282.97
2022-10-18T06:01:00.764Z,100280.09
2022-10-18T06:06:07.101Z,100287.97
2022-10-18T06:11:11.011Z,100289.19
2022-10-18T06:16:14.972Z,100291.88
2022-10-18T06:21:19.395Z,100287.72
2022-10-18T06:26:22.625Z,100296.44
2022-10-18T06:31:25.340Z,100301.00
2022-10-18T06:36:29.716Z,100296.63
2022-10-18T06:41:32.421Z,100307.03
2022-10-18T06:46:53.498Z,100324.41
2022-10-18T06:51:57.550Z,100326.88
2022-10-18T06:57:02.548Z,100333.47
2022-10-18T07:02:05.371Z,100325.22
2022-10-18T07:07:09.480Z,100330.59
2022-10-18T07:12:12.179Z,100337.00
2022-10-18T07:17:15.063Z,100337.66
2022-10-18T07:22:19.149Z,100341.38
2022-10-18T07:27:21.820Z,100350.09
2022-10-18T07:32:24.614Z,100357.13
2022-10-18T07:37:30.203Z,100372.47
2022-10-18T07:42:33.075Z,100381.53
2022-10-18T07:47:35.978Z,100376.81
2022-10-18T07:52:40.500Z,100378.03
2022-10-18T07:57:43.183Z,100386.56
2022-10-18T08:02:45.889Z,100384.72
2022-10-18T08:07:50.018Z,100389.06
2022-10-18T08:12:52.883Z,100401.50
2022-10-18T08:17:55.563Z,100407.16
2022-10-18T08:23:00.614Z,100392.41
2022-10-18T08:28:03.511Z,100409.00
2022-10-18T08:33:06.331Z,100416.91
2022-10-18T08:38:16.472Z,100422.94
2022-10-18T08:43:28.408Z,100426.00
2022-10-18T08:48:36.738Z,100432.66
2022-10-18T08:53:49.088Z,100440.09
2022-10-18T08:58:52.082Z,100449.22
2022-10-18T09:04:22.098Z,100449.03
2022-10-18T09:09:34.582Z,100452.94
2022-10-18T09:14:54.336Z,100452.06
2022-10-18T09:20:07.314Z,100452.28
2022-10-18T09:25:18.546Z,100462.84
2022-10-18T09:30:30.387Z,100461.00
2022-10-18T09:35:40.896Z,100465.38
2022-10-18T09:40:52.251Z,100469.72
2022-10-18T09:45:55.650Z,100467.66
2022-10-18T09:51:00.145Z,100470.06
2022-10-18T09:56:07.160Z,100463.66
2022-10-18T10:01:11.599Z,100473.47
2022-10-18T10:06:19.140Z,100464.84
2022-10-18T10:11:35.637Z,100481.44
2022-10-18T10:16:48.966Z,100477.72
2022-10-18T10:21:53.344Z,100484.78
2022-10-18T10:27:06.127Z,100489.50
2022-10-18T10:32:13.774Z,100490.56
2022-10-18T10:37:29.105Z,100491.66
2022-10-18T10:42:34.486Z,100500.19
2022-10-18T10:47:37.948Z,100503.13
2022-10-18T10:52:41.448Z,100494.34
2022-10-18T10:57:47.481Z,100494.97
2022-10-18T11:02:59.418Z,100487.50
2022-10-18T11:08:11.078Z,100483.44
2022-10-18T11:13:25.132Z,100490.13
2022-10-18T11:18:31.209Z,100483.28
2022-10-18T11:23:34.809Z,100482.91
2022-10-18T11:28:50.139Z,100478.34
2022-10-18T11:34:09.193Z,100488.09
2022-10-18T11:39:19.347Z,100478.16
2022-10-18T11:44:28.399Z,100476.03
2022-10-18T11:50:00.840Z,100473.97
2022-10-18T11:55:13.726Z,100472.75
2022-10-18T12:00:40.294Z,100468.66
2022-10-18T12:05:44.939Z,100468.72
2022-10-18T12:11:06.640Z,100469.94
2022-10-18T12:16:11.910Z,100468.53
2022-10-18T12:21:14.700Z,100461.09
2022-10-18T12:26:18.284Z,100475.41
2022-10-18T12:31:26.119Z,100461.69
2022-10-18T12:36:48.860Z,100453.00
2022-10-18T12:41:54.306Z,100456.06
2022-10-18T12:46:59.478Z,100459.59
2022-10-18T12:52:04.699Z,100452.53
2022-10-18T12:57:22.918Z,100445.91
2022-10-18T13:02:29.590Z,100439.50
2022-10-18T13:07:42.994Z,100451.94
2022-10-18T13:12:59.497Z,100456.53
2022-10-18T13:18:09.735Z,100465.44
2022-10-18T13:23:26.383Z,100465.44
2022-10-18T13:28:33.832Z,100468.13
2022-10-18T13:33:39.601Z,100459.84
2022-10-18T13:38:48.410Z,100461.34
2022-10-18T13:44:12.220Z,100449.31
2022-10-18T13:49:28.972Z,100453.84
2022-10-18T13:54:44.378Z,100455.72
2022-10-18T14:00:05.508Z,100457.59
2022-10-18T14:05:26.767Z,100468.78
2022-10-18T14:10:50.133Z,100467.75
2022-10-18T14:16:05.982Z,100462.91
2022-10-18T14:21:16.837Z,100471.22
2022-10-18T14:26:22.771Z,100473.28
2022-10-18T14:31:25.528Z,100480.31
2022-10-18T14:36:35.471Z,100466.25
2022-10-18T14:41:41.134Z,100462.56
2022-10-18T14:46:44.833Z,100467.09
2022-10-18T14:51:52.030Z,100474.16
2022-10-18T14:56:54.873Z,100477.88
2022-10-18T15:01:59.320Z,100480.97
2022-10-18T15:07:05.613Z,100481.53
2022-10-18T15:12:08.559Z,100486.88
2022-10-18T15:17:15.370Z,100486.63
2022-10-18T15:22:32.456Z,100478.94
2022-10-18T15:27:37.725Z,100479.34
2022-10-18T15:32:48.765Z,100492.34
2022-10-18T15:37:53.056Z,100485.47
2022-10-18T15:42:57.042Z,100484.19
2022-10-18T15:48:01.531Z,100483.91
2022-10-18T15:53:25.373Z,100481.56
2022-10-18T15:58:31.909Z,100487.34
2022-10-18T16:03:35.854Z,100488.56
2022-10-18T16:08:41.750Z,100492.47
2022-10-18T16:13:45.086Z,100486.81
2022-10-18T16:18:48.025Z,100494.84
2022-10-18T16:23:52.081Z,100491.69
2022-10-18T16:28:55.335Z,100508.22
2022-10-18T16:33:58.743Z,100499.44
2022-10-18T16:39:07.551Z,100498.59
2022-10-18T16:44:10.215Z,100501.84
2022-10-18T16:54:24.569Z,100522.66
2022-10-18T16:59:28.766Z,100519.50
2022-10-18T17:04:31.420Z,100518.00
2022-10-18T17:09:36.875Z,100532.50
2022-10-18T17:14:39.668Z,100537.41
2022-10-18T17:19:42.340Z,100531.78
2022-10-18T17:24:46.373Z,100547.72
2022-10-18T17:29:49.070Z,100557.94
2022-10-18T17:34:51.776Z,100547.63
2022-10-18T17:39:55.869Z,100551.72
2022-10-18T17:44:58.620Z,100555.63
2022-10-18T17:50:01.307Z,100559.91
2022-10-18T17:55:05.894Z,100553.03
2022-10-18T18:00:11.565Z,100559.63
2022-10-18T18:05:17.407Z,100563.84
2022-10-18T18:10:21.495Z,100569.25
2022-10-18T18:15:24.214Z,100568.78
2022-10-18T18:20:27.217Z,100563.41
2022-10-18T18:25:31.293Z,100579.25
2022-10-18T18:30:33.982Z,100574.22
2022-10-18T18:35:36.629Z,100573.56
2022-10-18T18:40:40.678Z,100571.63
2022-10-18T18:45:51.343Z,100567.88
2022-10-18T18:50:54.136Z,100575.31
2022-10-18T18:56:03.811Z,100565.94
2022-10-18T19:01:08.740Z,100571.69
2022-10-18T19:06:14.210Z,100569.16
2022-10-18T19:11:20.808Z,100570.84
2022-10-18T19:16:25.706Z,100569.72
2022-10-18T19:21:31.007Z,100564.53
2022-10-18T19:26:37.780Z,100570.75
2022-10-18T19:31:40.855Z,100564.53
2022-10-18T19:36:44.755Z,100565.38
2022-10-18T19:41:49.477Z,100559.53
2022-10-18T19:46:52.308Z,100561.34
2022-10-18T19:51:55.016Z,100559.03
2022-10-18T19:56:59.120Z,100560.22
2022-10-18T20:02:01.894Z,100560.59
2022-10-18T20:07:04.634Z,100557.06
2022-10-18T20:12:08.732Z,100565.50
2022-10-18T20:17:12.927Z,100571.22
2022-10-18T20:22:15.743Z,100569.72
2022-10-18T20:27:19.727Z,100567.03
2022-10-18T20:32:22.397Z,100570.94
2022-10-18T20:37:25.085Z,100574.81
2022-10-18T20:42:29.130Z,100581.22
2022-10-18T20:47:32.015Z,100585.09
2022-10-18T20:52:35.027Z,100582.59
2022-10-18T20:57:39.282Z,100579.44
2022-10-18T21:02:42.082Z,100584.13
2022-10-18T21:07:44.753Z,100589.72
2022-10-18T21:12:49.557Z,100572.75
2022-10-18T21:17:52.704Z,100574.94
2022-10-18T21:22:57.337Z,100580.31
2022-10-18T21:28:01.458Z,100567.41
2022-10-18T21:33:04.484Z,100563.06
2022-10-18T21:38:07.340Z,100561.72
2022-10-18T21:43:11.530Z,100552.00
2022-10-18T21:48:14.272Z,100553.88
2022-10-18T21:53:17.113Z,100550.50
2022-10-18T21:58:21.470Z,100548.19
2022-10-18T22:03:24.198Z,100551.03
2022-10-18T22:08:26.972Z,100548.72
2022-10-18T22:13:31.114Z,100543.34
2022-10-18T22:18:34.727Z,100543.03
2022-10-18T22:23:39.177Z,100546.72
2022-10-18T22:28:44.506Z,100543.19
2022-10-18T22:33:48.055Z,100540.00
2022-10-18T22:38:51.074Z,100541.19
2022-10-18T22:43:57.344Z,100546.09
2022-10-18T22:49:02.407Z,100537.38
2022-10-18T22:54:05.226Z,100534.03
2022-10-18T22:59:09.512Z,100534.03
2022-10-18T23:04:12.188Z,100540.59
2022-10-18T23:09:14.939Z,100540.78
2022-10-18T23:14:19.103Z,100550.03
2022-10-18T23:19:21.794Z,100536.41
2022-10-18T23:24:24.476Z,100533.41
2022-10-18T23:29:28.761Z,100536.28
2022-10-18T23:34:31.518Z,100531.09
2022-10-18T23:39:34.266Z,100525.03
2022-10-18T23:44:38.330Z,100527.25
2022-10-18T23:49:41.068Z,100535.47
2022-10-18T23:59:48.699Z,100542.22
